createdAt,value
2023-07-18T00:01:47.933Z,18.20
2023-07-18T00:04:20.774Z,18.70
2023-07-18T00:06:50.923Z,19.00
2023-07-18T00:09:21.147Z,19.20
2023-07-18T00:11:51.497Z,19.10
2023-07-18T00:14:21.874Z,19.00
2023-07-18T00:16:52.056Z,18.80
2023-07-18T00:19:24.867Z,18.80
2023-07-18T00:21:55.003Z,18.60
2023-07-18T00:24:25.192Z,18.70
2023-07-18T00:26:56.261Z,18.60
2023-07-18T00:29:26.730Z,18.60
2023-07-18T00:31:57.914Z,18.50
2023-07-18T00:34:30.795Z,18.50
2023-07-18T00:37:00.966Z,18.40
2023-07-18T00:39:31.151Z,18.30
2023-07-18T00:42:01.892Z,18.30
2023-07-18T00:44:32.051Z,18.20
2023-07-18T00:47:02.261Z,18.10
2023-07-18T00:49:36.121Z,18.00
2023-07-18T00:52:07.680Z,17.90
2023-07-18T00:54:38.076Z,17.70
2023-07-18T00:57:10.419Z,17.60
2023-07-18T00:59:41.891Z,17.50
2023-07-18T01:02:12.183Z,17.30
2023-07-18T01:04:46.008Z,17.20
2023-07-18T01:07:16.991Z,17.20
2023-07-18T01:09:48.673Z,17.20
2023-07-18T01:12:18.837Z,17.20
2023-07-18T01:14:50.716Z,17.10
2023-07-18T01:17:22.558Z,17.00
2023-07-18T01:19:55.344Z,17.00
2023-07-18T01:22:28.158Z,17.10
2023-07-18T01:24:58.328Z,17.10
2023-07-18T01:27:28.488Z,17.20
2023-07-18T01:29:58.704Z,17.30
2023-07-18T01:32:28.904Z,17.30
2023-07-18T01:34:59.051Z,17.40
2023-07-18T01:37:31.795Z,17.40
2023-07-18T01:40:03.096Z,17.40
2023-07-18T01:42:33.273Z,17.30
2023-07-18T01:45:04.065Z,17.30
2023-07-18T01:47:35.496Z,17.30
2023-07-18T01:50:05.961Z,17.40
2023-07-18T01:52:39.195Z,17.30
2023-07-18T01:55:11.163Z,17.30
2023-07-18T01:57:49.289Z,17.30
2023-07-18T02:00:23.819Z,17.20
2023-07-18T02:02:55.718Z,17.10
2023-07-18T02:05:27.133Z,17.10
2023-07-18T02:08:00.238Z,17.20
2023-07-18T02:10:30.836Z,17.10
2023-07-18T02:13:03.167Z,17.00
2023-07-18T02:15:34.956Z,16.90
2023-07-18T02:18:08.339Z,16.90
2023-07-18T02:20:38.541Z,16.80
2023-07-18T02:23:14.414Z,16.80
2023-07-18T02:25:44.650Z,16.60
2023-07-18T02:28:15.380Z,16.60
2023-07-18T02:30:46.265Z,16.60
2023-07-18T02:33:16.583Z,16.40
2023-07-18T02:35:51.787Z,16.30
2023-07-18T02:38:24.612Z,16.40
2023-07-18T02:40:55.029Z,16.20
2023-07-18T02:43:26.818Z,16.20
2023-07-18T02:45:57.405Z,16.10
2023-07-18T02:48:27.587Z,16.00
2023-07-18T02:50:57.789Z,15.90
2023-07-18T02:53:30.535Z,15.90
2023-07-18T02:56:00.710Z,15.90
2023-07-18T02:58:30.993Z,15.80
2023-07-18T03:01:01.283Z,15.70
2023-07-18T03:03:31.774Z,15.70
2023-07-18T03:06:02.204Z,15.60
2023-07-18T03:08:55.797Z,15.60
2023-07-18T03:11:26.981Z,15.60
2023-07-18T03:13:58.030Z,15.60
2023-07-18T03:16:28.209Z,15.60
2023-07-18T03:19:00.465Z,15.50
2023-07-18T03:21:30.643Z,15.30
2023-07-18T03:24:03.927Z,15.20
2023-07-18T03:26:34.121Z,14.90
2023-07-18T03:29:05.245Z,14.90
2023-07-18T03:31:37.104Z,14.80
2023-07-18T03:34:08.048Z,14.70
2023-07-18T03:36:39.014Z,14.50
2023-07-18T03:39:12.189Z,14.60
2023-07-18T03:41:42.830Z,14.60
2023-07-18T03:44:13.033Z,14.60
2023-07-18T03:46:43.260Z,14.70
2023-07-18T03:49:13.576Z,14.70
2023-07-18T03:51:43.715Z,14.80
2023-07-18T03:54:17.135Z,14.90
2023-07-18T03:56:47.878Z,15.00
2023-07-18T03:59:18.014Z,15.00
2023-07-18T04:01:48.351Z,15.10
2023-07-18T04:04:18.653Z,15.20
2023-07-18T04:06:48.883Z,15.30
2023-07-18T04:09:21.702Z,15.40
2023-07-18T04:11:52.331Z,15.40
2023-07-18T04:14:22.420Z,15.50
2023-07-18T04:16:52.729Z,15.70
2023-07-18T04:19:22.940Z,15.90
2023-07-18T04:21:53.090Z,16.00
2023-07-18T04:24:25.850Z,16.00
2023-07-18T04:26:55.986Z,16.10
2023-07-18T04:29:26.139Z,16.10
2023-07-18T04:31:56.613Z,16.10
2023-07-18T04:34:26.803Z,16.20
2023-07-18T04:36:57.142Z,16.30
2023-07-18T04:39:29.900Z,16.30
2023-07-18T04:42:00.129Z,16.30
2023-07-18T04:44:30.288Z,16.30
2023-07-18T04:47:00.661Z,16.30
2023-07-18T04:49:30.916Z,16.40
2023-07-18T04:52:01.087Z,16.40
2023-07-18T04:54:34.136Z,16.50
2023-07-18T04:57:06.538Z,16.50
2023-07-18T04:59:36.994Z,16.60
2023-07-18T05:02:07.648Z,16.70
2023-07-18T05:04:37.862Z,16.80
2023-07-18T05:07:08.620Z,16.90
2023-07-18T05:09:41.300Z,17.00
2023-07-18T05:12:11.755Z,17.10
2023-07-18T05:14:41.928Z,17.20
2023-07-18T05:17:12.160Z,17.30
2023-07-18T05:19:42.300Z,17.40
2023-07-18T05:22:12.390Z,17.60
2023-07-18T05:24:45.124Z,17.70
2023-07-18T05:27:15.173Z,17.80
2023-07-18T05:29:45.398Z,17.90
2023-07-18T05:32:15.532Z,18.10
2023-07-18T05:34:45.683Z,18.20
2023-07-18T05:37:15.783Z,18.40
2023-07-18T05:39:48.601Z,18.50
2023-07-18T05:42:18.858Z,18.60
2023-07-18T05:44:49.240Z,18.60
2023-07-18T05:47:19.651Z,18.70
2023-07-18T05:49:49.873Z,18.80
2023-07-18T05:52:20.070Z,18.90
2023-07-18T05:54:53.338Z,19.00
2023-07-18T05:57:23.547Z,19.00
2023-07-18T05:59:53.873Z,19.10
2023-07-18T06:02:24.310Z,19.10
2023-07-18T06:04:54.581Z,19.20
2023-07-18T06:07:24.709Z,19.40
2023-07-18T06:09:57.399Z,19.60
2023-07-18T06:12:27.578Z,19.50
2023-07-18T06:14:57.670Z,19.60
2023-07-18T06:17:27.902Z,19.70
2023-07-18T06:19:58.092Z,19.90
2023-07-18T06:22:28.237Z,19.90
2023-07-18T06:25:00.965Z,19.90
2023-07-18T06:27:31.059Z,19.80
2023-07-18T06:30:01.520Z,19.70
2023-07-18T06:32:31.685Z,19.60
2023-07-18T06:35:13.091Z,19.70
2023-07-18T06:37:51.919Z,19.70
2023-07-18T06:40:24.780Z,19.70
2023-07-18T06:42:54.875Z,20.00
2023-07-18T06:45:25.630Z,20.30
2023-07-18T06:47:55.708Z,20.40
2023-07-18T06:50:25.861Z,20.60
2023-07-18T06:52:55.965Z,20.30
2023-07-18T06:55:28.847Z,20.40
2023-07-18T06:57:59.020Z,20.60
2023-07-18T07:00:29.141Z,20.70
2023-07-18T07:02:59.419Z,20.70
2023-07-18T07:05:29.647Z,20.90
2023-07-18T07:07:59.829Z,20.90
2023-07-18T07:10:32.505Z,20.90
2023-07-18T07:13:02.633Z,20.90
2023-07-18T07:15:32.924Z,20.40
2023-07-18T07:18:03.253Z,20.80
2023-07-18T07:20:34.712Z,21.20
2023-07-18T07:23:04.950Z,21.40
2023-07-18T07:25:37.743Z,21.50
2023-07-18T07:28:08.170Z,21.50
2023-07-18T07:30:38.411Z,21.70
2023-07-18T07:33:09.169Z,21.70
2023-07-18T07:35:39.419Z,21.70
2023-07-18T07:38:09.981Z,21.60
2023-07-18T07:40:42.793Z,21.60
2023-07-18T07:43:12.918Z,21.50
2023-07-18T07:45:43.126Z,21.40
2023-07-18T07:48:13.430Z,21.70
2023-07-18T07:50:43.687Z,22.00
2023-07-18T07:53:14.028Z,22.10
2023-07-18T07:55:46.838Z,22.40
2023-07-18T07:58:17.137Z,22.00
2023-07-18T08:00:47.461Z,22.40
2023-07-18T08:03:17.897Z,22.40
2023-07-18T08:05:48.058Z,22.10
2023-07-18T08:08:18.174Z,22.20
2023-07-18T08:10:50.970Z,22.40
2023-07-18T08:13:21.160Z,22.30
2023-07-18T08:15:51.940Z,22.70
2023-07-18T08:18:22.094Z,23.00
2023-07-18T08:20:52.460Z,22.90
2023-07-18T08:23:22.600Z,23.20
2023-07-18T08:25:56.262Z,23.30
2023-07-18T08:28:26.404Z,23.60
2023-07-18T08:30:56.563Z,23.80
2023-07-18T08:33:26.706Z,23.70
2023-07-18T08:35:56.838Z,23.80
2023-07-18T08:38:26.986Z,23.80
2023-07-18T08:40:59.916Z,23.60
2023-07-18T08:43:30.816Z,23.60
2023-07-18T08:46:01.611Z,23.80
2023-07-18T08:48:31.686Z,23.80
2023-07-18T08:51:03.284Z,23.90
2023-07-18T08:53:35.633Z,23.90
2023-07-18T08:56:09.801Z,23.90
2023-07-18T08:58:40.513Z,24.00
2023-07-18T09:01:11.763Z,24.30
2023-07-18T09:03:42.072Z,24.40
2023-07-18T09:06:20.493Z,24.50
2023-07-18T09:08:50.802Z,24.80
2023-07-18T09:11:26.243Z,24.70
2023-07-18T09:13:56.372Z,24.70
2023-07-18T09:16:27.051Z,24.80
2023-07-18T09:18:58.783Z,25.00
2023-07-18T09:21:31.750Z,25.00
2023-07-18T09:24:01.903Z,24.80
2023-07-18T09:26:34.730Z,25.10
2023-07-18T09:29:05.094Z,25.50
2023-07-18T09:31:35.313Z,25.60
2023-07-18T09:34:14.790Z,25.80
2023-07-18T09:36:44.892Z,25.90
2023-07-18T09:39:15.966Z,25.50
2023-07-18T09:41:48.971Z,24.90
2023-07-18T09:44:31.767Z,25.00
2023-07-18T09:47:04.112Z,24.60
2023-07-18T09:49:34.713Z,24.70
2023-07-18T09:52:08.419Z,25.30
2023-07-18T09:54:38.861Z,25.70
2023-07-18T09:57:13.298Z,25.80
2023-07-18T09:59:43.808Z,25.90
2023-07-18T10:02:14.210Z,26.40
2023-07-18T10:04:44.501Z,26.80
2023-07-18T10:07:14.653Z,27.10
2023-07-18T10:09:44.849Z,27.40
2023-07-18T10:12:17.749Z,27.60
2023-07-18T10:14:58.337Z,28.20
2023-07-18T10:17:29.808Z,27.50
2023-07-18T10:20:00.064Z,27.30
2023-07-18T10:22:30.916Z,26.80
2023-07-18T10:25:06.279Z,26.60
2023-07-18T10:27:43.644Z,26.50
2023-07-18T10:30:17.284Z,26.70
2023-07-18T10:32:54.639Z,26.60
2023-07-18T10:35:26.349Z,26.40
2023-07-18T10:37:57.635Z,26.20
2023-07-18T10:40:37.488Z,25.60
2023-07-18T10:43:12.491Z,25.30
2023-07-18T10:45:43.443Z,25.30
2023-07-18T10:48:16.179Z,26.10
2023-07-18T10:50:47.060Z,26.90
2023-07-18T10:53:18.948Z,26.60
2023-07-18T10:55:50.152Z,26.90
2023-07-18T10:58:24.190Z,26.70
2023-07-18T11:00:54.641Z,26.90
2023-07-18T11:03:27.262Z,25.80
2023-07-18T11:05:57.933Z,26.00
2023-07-18T11:08:28.984Z,26.40
2023-07-18T11:11:00.578Z,27.20
2023-07-18T11:13:35.256Z,26.30
2023-07-18T11:16:06.513Z,26.80
2023-07-18T11:18:38.608Z,27.30
2023-07-18T11:21:09.791Z,28.20
2023-07-18T11:23:41.380Z,27.20
2023-07-18T11:26:16.297Z,26.80
2023-07-18T11:28:53.680Z,26.10
2023-07-18T11:34:02.968Z,26.30
2023-07-18T11:36:34.501Z,27.00
2023-07-18T11:39:05.470Z,27.30
2023-07-18T11:41:36.628Z,27.20
2023-07-18T11:44:10.036Z,27.60
2023-07-18T11:46:40.821Z,26.80
2023-07-18T11:49:11.358Z,26.00
2023-07-18T11:51:41.551Z,26.70
2023-07-18T11:54:11.777Z,27.40
2023-07-18T11:56:42.344Z,27.60
2023-07-18T11:59:15.113Z,26.90
2023-07-18T12:01:45.361Z,26.30
2023-07-18T12:04:16.385Z,26.80
2023-07-18T12:06:48.148Z,26.30
2023-07-18T12:09:18.443Z,27.00
2023-07-18T12:11:48.628Z,27.50
2023-07-18T12:14:21.355Z,27.40
2023-07-18T12:16:51.642Z,27.70
2023-07-18T12:19:22.549Z,28.40
2023-07-18T12:21:52.849Z,28.50
2023-07-18T12:24:23.301Z,28.40
2023-07-18T12:26:53.486Z,28.30
2023-07-18T12:29:26.352Z,28.50
2023-07-18T12:31:56.551Z,29.00
2023-07-18T12:34:28.660Z,28.20
2023-07-18T12:36:58.782Z,27.80
2023-07-18T12:39:29.054Z,28.80
2023-07-18T12:41:59.143Z,28.80
2023-07-18T12:44:43.775Z,28.80
2023-07-18T12:47:13.981Z,28.80
2023-07-18T12:52:17.247Z,29.50
2023-07-18T12:54:47.612Z,28.80
2023-07-18T12:57:17.721Z,28.60
2023-07-18T12:59:50.492Z,29.10
2023-07-18T13:02:20.627Z,28.10
2023-07-18T13:04:50.879Z,27.90
2023-07-18T13:07:21.067Z,27.60
2023-07-18T13:09:51.283Z,28.40
2023-07-18T13:12:21.707Z,28.60
2023-07-18T13:14:54.543Z,28.30
2023-07-18T13:17:25.112Z,28.20
2023-07-18T13:19:55.569Z,28.20
2023-07-18T13:22:25.773Z,28.10
2023-07-18T13:24:55.887Z,27.80
2023-07-18T13:27:26.426Z,28.70
2023-07-18T13:29:59.231Z,28.00
2023-07-18T13:32:29.409Z,27.40
2023-07-18T13:34:59.502Z,28.70
2023-07-18T13:37:29.737Z,29.30
2023-07-18T13:39:59.870Z,29.60
2023-07-18T13:42:31.904Z,28.20
2023-07-18T13:45:09.089Z,28.20
2023-07-18T13:47:41.276Z,28.70
2023-07-18T13:52:46.113Z,29.00
2023-07-18T13:55:16.797Z,29.20
2023-07-18T13:57:47.132Z,28.70
2023-07-18T14:00:21.105Z,29.00
2023-07-18T14:02:51.438Z,29.50
2023-07-18T14:05:21.917Z,29.90
2023-07-18T14:07:52.177Z,29.90
2023-07-18T14:10:22.378Z,29.40
2023-07-18T14:12:52.536Z,29.50
2023-07-18T14:15:25.339Z,28.90
2023-07-18T14:17:55.931Z,29.00
2023-07-18T14:20:26.270Z,29.30
2023-07-18T14:22:56.436Z,28.60
2023-07-18T14:25:26.808Z,28.00
2023-07-18T14:27:57.111Z,27.70
2023-07-18T14:30:29.860Z,27.60
2023-07-18T14:33:02.288Z,27.50
2023-07-18T14:35:34.798Z,27.70
2023-07-18T14:38:04.904Z,27.80
2023-07-18T14:40:35.080Z,28.00
2023-07-18T14:43:09.817Z,27.70
2023-07-18T14:45:43.103Z,27.90
2023-07-18T14:48:13.321Z,28.00
2023-07-18T14:50:43.568Z,28.00
2023-07-18T14:53:13.772Z,28.30
2023-07-18T14:55:45.162Z,28.30
2023-07-18T14:58:15.493Z,28.20
2023-07-18T15:00:50.174Z,28.10
2023-07-18T15:03:20.605Z,28.40
2023-07-18T15:05:51.218Z,28.70
2023-07-18T15:08:21.416Z,28.70
2023-07-18T15:10:51.633Z,28.60
2023-07-18T15:13:21.835Z,28.60
2023-07-18T15:15:54.663Z,28.90
2023-07-18T15:18:24.872Z,28.20
2023-07-18T15:20:55.036Z,27.80
2023-07-18T15:23:25.178Z,27.50
2023-07-18T15:25:55.358Z,27.80
2023-07-18T15:28:26.283Z,27.60
2023-07-18T15:30:59.087Z,27.50
2023-07-18T15:33:29.212Z,27.20
2023-07-18T15:35:59.371Z,26.80
2023-07-18T15:38:29.494Z,26.50
2023-07-18T15:40:59.672Z,26.60
2023-07-18T15:43:29.880Z,26.50
2023-07-18T15:46:02.849Z,26.20
2023-07-18T15:48:33.155Z,26.30
2023-07-18T15:51:03.330Z,26.60
2023-07-18T15:53:33.816Z,26.80
2023-07-18T15:56:03.925Z,26.80
2023-07-18T15:58:34.392Z,26.20
2023-07-18T16:01:07.168Z,26.30
2023-07-18T16:03:37.502Z,26.30
2023-07-18T16:06:07.708Z,26.30
2023-07-18T16:08:37.845Z,26.30
2023-07-18T16:11:07.988Z,26.20
2023-07-18T16:13:40.281Z,26.00
2023-07-18T16:16:14.131Z,26.10
2023-07-18T16:18:58.326Z,26.10
2023-07-18T16:21:29.151Z,26.30
2023-07-18T16:23:59.549Z,26.00
2023-07-18T16:26:30.339Z,25.90
2023-07-18T16:29:00.499Z,26.20
2023-07-18T16:31:33.476Z,26.80
2023-07-18T16:34:03.732Z,27.10
2023-07-18T16:36:34.025Z,27.40
2023-07-18T16:39:04.157Z,27.50
2023-07-18T16:41:34.590Z,27.70
2023-07-18T16:44:04.858Z,28.00
2023-07-18T16:46:37.783Z,28.10
2023-07-18T16:49:07.942Z,27.80
2023-07-18T16:51:38.765Z,27.90
2023-07-18T16:54:08.958Z,28.10
2023-07-18T16:56:39.239Z,28.30
2023-07-18T16:59:09.493Z,28.50
2023-07-18T17:01:44.320Z,28.70
2023-07-18T17:04:15.146Z,28.70
2023-07-18T17:06:45.316Z,28.90
2023-07-18T17:09:17.056Z,28.70
2023-07-18T17:11:47.489Z,28.40
2023-07-18T17:14:17.693Z,28.40
2023-07-18T17:16:50.462Z,28.50
2023-07-18T17:19:20.682Z,28.70
2023-07-18T17:21:50.896Z,28.60
2023-07-18T17:24:21.157Z,28.50
2023-07-18T17:26:52.084Z,28.80
2023-07-18T17:29:22.308Z,28.90
2023-07-18T17:31:55.056Z,28.80
2023-07-18T17:34:27.983Z,28.90
2023-07-18T17:36:58.422Z,28.40
2023-07-18T17:39:29.178Z,28.00
2023-07-18T17:42:01.291Z,27.50
2023-07-18T17:44:31.620Z,26.90
2023-07-18T17:47:04.500Z,26.50
2023-07-18T17:49:34.785Z,26.00
2023-07-18T17:52:05.063Z,25.60
2023-07-18T17:54:35.211Z,25.40
2023-07-18T17:57:05.494Z,25.20
2023-07-18T17:59:36.422Z,25.20
2023-07-18T18:02:09.735Z,25.10
2023-07-18T18:04:40.631Z,24.50
2023-07-18T18:07:13.374Z,24.40
2023-07-18T18:09:44.086Z,24.40
2023-07-18T18:12:14.326Z,24.10
2023-07-18T18:14:44.652Z,23.80
2023-07-18T18:17:17.533Z,23.70
2023-07-18T18:19:48.096Z,23.50
2023-07-18T18:22:18.564Z,23.20
2023-07-18T18:24:48.755Z,23.00
2023-07-18T18:27:18.916Z,22.50
2023-07-18T18:29:49.278Z,22.50
2023-07-18T18:32:22.091Z,22.00
2023-07-18T18:35:06.427Z,21.70
2023-07-18T18:37:37.644Z,21.60
2023-07-18T18:40:08.842Z,21.50
2023-07-18T18:42:39.000Z,21.20
2023-07-18T18:45:10.272Z,20.80
2023-07-18T18:47:47.787Z,20.50
2023-07-18T18:50:19.786Z,20.30
2023-07-18T18:52:50.089Z,20.10
2023-07-18T18:55:21.975Z,19.90
2023-07-18T18:57:53.309Z,19.80
2023-07-18T19:00:23.574Z,19.80
2023-07-18T19:02:59.031Z,19.50
2023-07-18T19:05:30.176Z,19.40
2023-07-18T19:08:00.307Z,19.30
2023-07-18T19:10:31.410Z,19.20
2023-07-18T19:13:01.954Z,19.30
2023-07-18T19:15:32.179Z,19.30
2023-07-18T19:18:05.243Z,19.20
2023-07-18T19:20:35.717Z,19.00
2023-07-18T19:23:05.956Z,18.80
2023-07-18T19:25:36.164Z,18.80
2023-07-18T19:28:06.665Z,18.70
2023-07-18T19:30:36.894Z,18.60
2023-07-18T19:33:09.689Z,18.40
2023-07-18T19:35:40.164Z,18.30
2023-07-18T19:38:10.458Z,18.20
2023-07-18T19:40:40.673Z,18.00
2023-07-18T19:43:10.929Z,18.00
2023-07-18T19:45:41.137Z,18.00
2023-07-18T19:48:13.959Z,17.80
2023-07-18T19:50:44.396Z,17.60
2023-07-18T19:53:14.838Z,17.50
2023-07-18T19:55:45.936Z,17.40
2023-07-18T19:58:16.114Z,17.30
2023-07-18T20:00:46.342Z,17.20
2023-07-18T20:03:19.309Z,17.30
2023-07-18T20:05:49.613Z,17.10
2023-07-18T20:08:19.785Z,17.00
2023-07-18T20:10:49.974Z,16.90
2023-07-18T20:13:20.401Z,16.90
2023-07-18T20:15:50.642Z,16.80
2023-07-18T20:18:23.493Z,16.80
2023-07-18T20:20:53.703Z,16.80
2023-07-18T20:23:23.863Z,16.70
2023-07-18T20:25:54.137Z,16.70
2023-07-18T20:28:24.369Z,16.70
2023-07-18T20:30:54.515Z,16.60
2023-07-18T20:33:27.616Z,16.70
2023-07-18T20:35:57.985Z,16.60
2023-07-18T20:38:28.230Z,16.50
2023-07-18T20:40:59.056Z,16.50
2023-07-18T20:43:29.300Z,16.50
2023-07-18T20:46:00.062Z,16.40
2023-07-18T20:48:34.334Z,16.20
2023-07-18T20:51:04.596Z,16.20
2023-07-18T20:53:34.837Z,16.10
2023-07-18T20:56:05.122Z,16.10
2023-07-18T20:58:36.390Z,16.10
2023-07-18T21:01:06.624Z,16.10
2023-07-18T21:03:39.552Z,16.10
2023-07-18T21:06:09.755Z,16.10
2023-07-18T21:08:39.990Z,16.10
2023-07-18T21:11:10.211Z,16.10
2023-07-18T21:13:40.488Z,16.00
2023-07-18T21:16:11.540Z,15.90
2023-07-18T21:18:44.409Z,15.70
2023-07-18T21:21:14.649Z,15.70
2023-07-18T21:23:45.902Z,15.60
2023-07-18T21:26:16.219Z,15.70
2023-07-18T21:29:02.037Z,15.70
2023-07-18T21:31:34.672Z,15.60
2023-07-18T21:34:08.305Z,15.60
2023-07-18T21:36:38.888Z,15.60
2023-07-18T21:39:09.378Z,15.60
2023-07-18T21:41:39.555Z,15.60
2023-07-18T21:44:09.772Z,15.40
2023-07-18T21:46:40.298Z,15.50
2023-07-18T21:49:13.179Z,15.40
2023-07-18T21:51:43.376Z,15.40
2023-07-18T21:54:14.569Z,15.30
2023-07-18T21:56:44.927Z,15.30
2023-07-18T21:59:15.176Z,15.30
2023-07-18T22:01:46.737Z,15.20
2023-07-18T22:04:19.701Z,15.10
2023-07-18T22:06:50.027Z,15.20
2023-07-18T22:09:20.160Z,15.00
2023-07-18T22:11:52.043Z,14.90
2023-07-18T22:14:22.549Z,14.80
2023-07-18T22:16:52.739Z,14.90
2023-07-18T22:19:25.611Z,14.90
2023-07-18T22:21:55.876Z,14.90
2023-07-18T22:24:26.133Z,15.00
2023-07-18T22:26:56.422Z,15.00
2023-07-18T22:29:27.165Z,15.00
2023-07-18T22:31:57.320Z,14.90
2023-07-18T22:34:30.128Z,14.80
2023-07-18T22:37:00.510Z,14.90
2023-07-18T22:39:35.943Z,14.90
2023-07-18T22:42:17.989Z,15.00
2023-07-18T22:44:49.174Z,15.00
2023-07-18T22:47:19.936Z,15.00
2023-07-18T22:49:52.895Z,14.90
2023-07-18T22:52:23.038Z,14.90
2023-07-18T22:54:53.727Z,15.00
2023-07-18T22:57:23.988Z,15.00
2023-07-18T22:59:54.172Z,15.00
2023-07-18T23:02:24.700Z,15.00
2023-07-18T23:04:57.618Z,14.90
2023-07-18T23:07:27.882Z,14.90
2023-07-18T23:09:58.005Z,14.90
2023-07-18T23:12:28.361Z,14.80
2023-07-18T23:14:58.605Z,14.90
2023-07-18T23:17:28.905Z,14.90
2023-07-18T23:20:01.744Z,14.90
2023-07-18T23:22:32.464Z,15.00
2023-07-18T23:25:04.104Z,15.00
2023-07-18T23:27:34.359Z,15.00
2023-07-18T23:30:04.622Z,15.00
2023-07-18T23:32:35.389Z,15.00
2023-07-18T23:35:09.337Z,15.00
2023-07-18T23:37:39.500Z,15.00
2023-07-18T23:40:11.442Z,14.90
2023-07-18T23:42:42.347Z,14.90
2023-07-18T23:45:13.931Z,14.80
2023-07-18T23:47:44.191Z,14.80
2023-07-18T23:50:17.133Z,14.90
2023-07-18T23:52:47.279Z,14.90
2023-07-18T23:55:17.534Z,14.80
2023-07-18T23:57:47.733Z,14.70
